sensor_id;sensor_type;location;lat;lon;timestamp;P1;durP1;ratioP1;P2;durP2;ratioP2
23555;SDS011;11956;53.184;8.578;2022-07-23T00:00:36;8.48;;;2.10;;
23555;SDS011;11956;53.184;8.578;2022-07-23T00:03:37;5.47;;;2.50;;
23555;SDS011;11956;53.184;8.578;2022-07-23T00:06:38;6.20;;;1.90;;
23555;SDS011;11956;53.184;8.578;2022-07-23T00:09:39;4.57;;;1.95;;
23555;SDS011;11956;53.184;8.578;2022-07-23T00:12:40;4.55;;;2.50;;
23555;SDS011;11956;53.184;8.578;2022-07-23T00:15:41;5.82;;;2.30;;
23555;SDS011;11956;53.184;8.578;2022-07-23T00:18:42;6.90;;;3.38;;
23555;SDS011;11956;53.184;8.578;2022-07-23T00:21:42;4.35;;;2.75;;
23555;SDS011;11956;53.184;8.578;2022-07-23T00:24:43;7.22;;;3.08;;
23555;SDS011;11956;53.184;8.578;2022-07-23T00:27:44;5.95;;;3.75;;
23555;SDS011;11956;53.184;8.578;2022-07-23T00:30:45;6.25;;;3.75;;
23555;SDS011;11956;53.184;8.578;2022-07-23T00:33:46;5.03;;;3.35;;
23555;SDS011;11956;53.184;8.578;2022-07-23T00:36:46;6.32;;;3.78;;
23555;SDS011;11956;53.184;8.578;2022-07-23T00:39:47;6.20;;;3.00;;
23555;SDS011;11956;53.184;8.578;2022-07-23T00:42:48;5.13;;;3.13;;
23555;SDS011;11956;53.184;8.578;2022-07-23T00:45:49;7.07;;;4.47;;
23555;SDS011;11956;53.184;8.578;2022-07-23T00:48:50;4.75;;;3.85;;
23555;SDS011;11956;53.184;8.578;2022-07-23T00:51:51;5.85;;;4.00;;
23555;SDS011;11956;53.184;8.578;2022-07-23T00:54:52;8.77;;;5.68;;
23555;SDS011;11956;53.184;8.578;2022-07-23T00:57:53;12.38;;;5.30;;
23555;SDS011;11956;53.184;8.578;2022-07-23T01:00:56;7.13;;;4.20;;
23555;SDS011;11956;53.184;8.578;2022-07-23T01:03:56;7.15;;;4.45;;
23555;SDS011;11956;53.184;8.578;2022-07-23T01:06:57;9.75;;;6.30;;
23555;SDS011;11956;53.184;8.578;2022-07-23T01:09:59;8.63;;;6.38;;
23555;SDS011;11956;53.184;8.578;2022-07-23T01:13:05;11.35;;;6.80;;
23555;SDS011;11956;53.184;8.578;2022-07-23T01:16:09;9.45;;;6.25;;
23555;SDS011;11956;53.184;8.578;2022-07-23T01:19:11;8.02;;;5.25;;
23555;SDS011;11956;53.184;8.578;2022-07-23T01:22:13;9.00;;;4.30;;
23555;SDS011;11956;53.184;8.578;2022-07-23T01:25:19;7.15;;;4.55;;
23555;SDS011;11956;53.184;8.578;2022-07-23T01:28:28;7.63;;;4.72;;
23555;SDS011;11956;53.184;8.578;2022-07-23T01:31:31;4.95;;;4.20;;
23555;SDS011;11956;53.184;8.578;2022-07-23T01:34:32;8.90;;;5.68;;
23555;SDS011;11956;53.184;8.578;2022-07-23T01:37:33;9.13;;;5.10;;
23555;SDS011;11956;53.184;8.578;2022-07-23T01:40:34;9.35;;;5.50;;
23555;SDS011;11956;53.184;8.578;2022-07-23T01:43:35;8.73;;;5.40;;
23555;SDS011;11956;53.184;8.578;2022-07-23T01:46:38;7.95;;;5.07;;
23555;SDS011;11956;53.184;8.578;2022-07-23T01:49:40;6.53;;;4.55;;
23555;SDS011;11956;53.184;8.578;2022-07-23T01:52:58;8.85;;;5.05;;
23555;SDS011;11956;53.184;8.578;2022-07-23T01:56:00;11.50;;;5.20;;
23555;SDS011;11956;53.184;8.578;2022-07-23T01:59:01;6.10;;;4.30;;
23555;SDS011;11956;53.184;8.578;2022-07-23T02:02:02;7.50;;;4.18;;
23555;SDS011;11956;53.184;8.578;2022-07-23T02:05:05;6.07;;;3.92;;
23555;SDS011;11956;53.184;8.578;2022-07-23T02:08:06;10.77;;;4.53;;
23555;SDS011;11956;53.184;8.578;2022-07-23T02:14:11;6.55;;;4.40;;
23555;SDS011;11956;53.184;8.578;2022-07-23T02:17:12;11.43;;;4.22;;
23555;SDS011;11956;53.184;8.578;2022-07-23T02:20:12;6.30;;;3.80;;
23555;SDS011;11956;53.184;8.578;2022-07-23T02:23:17;11.45;;;4.03;;
23555;SDS011;11956;53.184;8.578;2022-07-23T02:26:18;6.35;;;3.75;;
23555;SDS011;11956;53.184;8.578;2022-07-23T02:29:19;6.25;;;4.00;;
23555;SDS011;11956;53.184;8.578;2022-07-23T02:32:20;6.85;;;3.30;;
23555;SDS011;11956;53.184;8.578;2022-07-23T02:35:21;5.18;;;3.58;;
23555;SDS011;11956;53.184;8.578;2022-07-23T02:38:22;8.07;;;4.38;;
23555;SDS011;11956;53.184;8.578;2022-07-23T02:41:23;5.07;;;3.90;;
23555;SDS011;11956;53.184;8.578;2022-07-23T02:44:24;7.80;;;4.03;;
23555;SDS011;11956;53.184;8.578;2022-07-23T02:47:27;7.30;;;5.13;;
23555;SDS011;11956;53.184;8.578;2022-07-23T02:50:30;8.03;;;5.37;;
23555;SDS011;11956;53.184;8.578;2022-07-23T02:53:33;8.85;;;5.40;;
23555;SDS011;11956;53.184;8.578;2022-07-23T02:56:33;6.78;;;4.57;;
23555;SDS011;11956;53.184;8.578;2022-07-23T02:59:34;6.20;;;5.10;;
23555;SDS011;11956;53.184;8.578;2022-07-23T03:02:35;8.48;;;6.00;;
23555;SDS011;11956;53.184;8.578;2022-07-23T03:05:36;10.43;;;6.00;;
23555;SDS011;11956;53.184;8.578;2022-07-23T03:08:38;10.52;;;5.53;;
23555;SDS011;11956;53.184;8.578;2022-07-23T03:11:39;9.20;;;5.75;;
23555;SDS011;11956;53.184;8.578;2022-07-23T03:14:40;12.32;;;5.90;;
23555;SDS011;11956;53.184;8.578;2022-07-23T03:17:42;13.18;;;6.40;;
23555;SDS011;11956;53.184;8.578;2022-07-23T03:20:43;7.93;;;5.85;;
23555;SDS011;11956;53.184;8.578;2022-07-23T03:23:44;6.97;;;5.90;;
23555;SDS011;11956;53.184;8.578;2022-07-23T03:26:46;9.95;;;5.70;;
23555;SDS011;11956;53.184;8.578;2022-07-23T03:29:47;7.75;;;6.30;;
23555;SDS011;11956;53.184;8.578;2022-07-23T03:32:48;8.63;;;5.93;;
23555;SDS011;11956;53.184;8.578;2022-07-23T03:35:49;8.48;;;5.93;;
23555;SDS011;11956;53.184;8.578;2022-07-23T03:38:58;10.90;;;6.32;;
23555;SDS011;11956;53.184;8.578;2022-07-23T03:41:59;8.27;;;5.80;;
23555;SDS011;11956;53.184;8.578;2022-07-23T03:45:00;8.85;;;6.38;;
23555;SDS011;11956;53.184;8.578;2022-07-23T03:48:01;9.40;;;6.00;;
23555;SDS011;11956;53.184;8.578;2022-07-23T03:51:03;10.35;;;5.60;;
23555;SDS011;11956;53.184;8.578;2022-07-23T03:54:04;6.45;;;5.15;;
23555;SDS011;11956;53.184;8.578;2022-07-23T03:57:05;9.07;;;5.45;;
23555;SDS011;11956;53.184;8.578;2022-07-23T04:00:07;7.65;;;5.53;;
23555;SDS011;11956;53.184;8.578;2022-07-23T04:03:13;6.72;;;5.68;;
23555;SDS011;11956;53.184;8.578;2022-07-23T04:06:15;11.20;;;5.40;;
23555;SDS011;11956;53.184;8.578;2022-07-23T04:09:16;11.15;;;5.40;;
23555;SDS011;11956;53.184;8.578;2022-07-23T04:12:17;8.52;;;5.60;;
23555;SDS011;11956;53.184;8.578;2022-07-23T04:15:19;9.88;;;5.05;;
23555;SDS011;11956;53.184;8.578;2022-07-23T04:18:20;5.90;;;5.03;;
23555;SDS011;11956;53.184;8.578;2022-07-23T04:21:35;6.82;;;5.00;;
23555;SDS011;11956;53.184;8.578;2022-07-23T04:24:36;9.13;;;5.30;;
23555;SDS011;11956;53.184;8.578;2022-07-23T04:27:37;9.10;;;5.20;;
23555;SDS011;11956;53.184;8.578;2022-07-23T04:30:38;8.68;;;5.05;;
23555;SDS011;11956;53.184;8.578;2022-07-23T04:33:41;8.10;;;4.43;;
23555;SDS011;11956;53.184;8.578;2022-07-23T04:36:42;7.60;;;4.97;;
23555;SDS011;11956;53.184;8.578;2022-07-23T04:39:43;10.75;;;5.03;;
23555;SDS011;11956;53.184;8.578;2022-07-23T04:42:45;8.55;;;5.05;;
23555;SDS011;11956;53.184;8.578;2022-07-23T04:45:47;6.53;;;5.07;;
23555;SDS011;11956;53.184;8.578;2022-07-23T04:48:49;6.88;;;4.78;;
23555;SDS011;11956;53.184;8.578;2022-07-23T04:51:51;5.97;;;4.80;;
23555;SDS011;11956;53.184;8.578;2022-07-23T04:54:52;12.93;;;5.50;;
23555;SDS011;11956;53.184;8.578;2022-07-23T04:57:52;8.25;;;5.43;;
23555;SDS011;11956;53.184;8.578;2022-07-23T05:00:53;9.07;;;4.88;;
23555;SDS011;11956;53.184;8.578;2022-07-23T05:03:55;7.50;;;5.05;;
23555;SDS011;11956;53.184;8.578;2022-07-23T05:06:58;5.47;;;4.32;;
23555;SDS011;11956;53.184;8.578;2022-07-23T05:09:59;6.32;;;4.60;;
23555;SDS011;11956;53.184;8.578;2022-07-23T05:13:00;4.60;;;4.00;;
23555;SDS011;11956;53.184;8.578;2022-07-23T05:16:01;6.72;;;3.80;;
23555;SDS011;11956;53.184;8.578;2022-07-23T05:19:02;9.85;;;4.35;;
23555;SDS011;11956;53.184;8.578;2022-07-23T05:22:06;5.13;;;3.58;;
23555;SDS011;11956;53.184;8.578;2022-07-23T05:25:07;8.55;;;3.83;;
23555;SDS011;11956;53.184;8.578;2022-07-23T05:28:08;4.60;;;3.38;;
23555;SDS011;11956;53.184;8.578;2022-07-23T05:31:09;7.95;;;3.47;;
23555;SDS011;11956;53.184;8.578;2022-07-23T05:34:10;7.57;;;3.45;;
23555;SDS011;11956;53.184;8.578;2022-07-23T05:37:12;4.97;;;3.28;;
23555;SDS011;11956;53.184;8.578;2022-07-23T05:40:12;6.38;;;3.00;;
23555;SDS011;11956;53.184;8.578;2022-07-23T05:43:14;5.82;;;2.65;;
23555;SDS011;11956;53.184;8.578;2022-07-23T05:46:15;4.30;;;2.55;;
23555;SDS011;11956;53.184;8.578;2022-07-23T05:49:20;5.35;;;3.30;;
23555;SDS011;11956;53.184;8.578;2022-07-23T05:52:40;6.07;;;2.97;;
23555;SDS011;11956;53.184;8.578;2022-07-23T05:56:00;4.95;;;2.75;;
23555;SDS011;11956;53.184;8.578;2022-07-23T05:59:02;4.50;;;2.38;;
23555;SDS011;11956;53.184;8.578;2022-07-23T06:02:03;7.10;;;2.40;;
23555;SDS011;11956;53.184;8.578;2022-07-23T06:05:04;2.72;;;1.77;;
23555;SDS011;11956;53.184;8.578;2022-07-23T06:08:07;4.40;;;1.80;;
23555;SDS011;11956;53.184;8.578;2022-07-23T06:11:09;1.92;;;1.20;;
23555;SDS011;11956;53.184;8.578;2022-07-23T06:14:10;2.35;;;1.30;;
23555;SDS011;11956;53.184;8.578;2022-07-23T06:17:31;3.90;;;1.52;;
23555;SDS011;11956;53.184;8.578;2022-07-23T06:20:32;3.58;;;1.50;;
23555;SDS011;11956;53.184;8.578;2022-07-23T06:23:33;5.25;;;1.45;;
23555;SDS011;11956;53.184;8.578;2022-07-23T06:26:34;4.03;;;2.10;;
23555;SDS011;11956;53.184;8.578;2022-07-23T06:29:35;2.75;;;1.63;;
23555;SDS011;11956;53.184;8.578;2022-07-23T06:32:36;3.67;;;1.60;;
23555;SDS011;11956;53.184;8.578;2022-07-23T06:35:36;4.40;;;1.80;;
23555;SDS011;11956;53.184;8.578;2022-07-23T06:38:41;3.25;;;1.92;;
23555;SDS011;11956;53.184;8.578;2022-07-23T06:41:42;3.35;;;1.70;;
23555;SDS011;11956;53.184;8.578;2022-07-23T06:44:43;5.80;;;2.30;;
23555;SDS011;11956;53.184;8.578;2022-07-23T06:47:44;2.75;;;2.28;;
23555;SDS011;11956;53.184;8.578;2022-07-23T06:50:45;3.95;;;2.20;;
23555;SDS011;11956;53.184;8.578;2022-07-23T06:53:46;3.95;;;2.03;;
23555;SDS011;11956;53.184;8.578;2022-07-23T06:56:47;4.00;;;2.33;;
23555;SDS011;11956;53.184;8.578;2022-07-23T06:59:49;3.78;;;2.22;;
23555;SDS011;11956;53.184;8.578;2022-07-23T07:02:50;4.60;;;2.20;;
23555;SDS011;11956;53.184;8.578;2022-07-23T07:05:51;4.45;;;1.70;;
23555;SDS011;11956;53.184;8.578;2022-07-23T07:08:53;4.25;;;2.00;;
23555;SDS011;11956;53.184;8.578;2022-07-23T07:11:54;6.85;;;1.92;;
23555;SDS011;11956;53.184;8.578;2022-07-23T07:14:56;5.50;;;2.30;;
23555;SDS011;11956;53.184;8.578;2022-07-23T07:17:57;5.32;;;2.20;;
23555;SDS011;11956;53.184;8.578;2022-07-23T07:20:58;7.47;;;2.78;;
23555;SDS011;11956;53.184;8.578;2022-07-23T07:23:59;5.88;;;2.35;;
23555;SDS011;11956;53.184;8.578;2022-07-23T07:27:00;4.75;;;2.13;;
23555;SDS011;11956;53.184;8.578;2022-07-23T07:30:01;4.57;;;1.48;;
23555;SDS011;11956;53.184;8.578;2022-07-23T07:33:04;4.10;;;1.48;;
23555;SDS011;11956;53.184;8.578;2022-07-23T07:36:07;3.78;;;1.70;;
23555;SDS011;11956;53.184;8.578;2022-07-23T07:39:08;3.70;;;1.80;;
23555;SDS011;11956;53.184;8.578;2022-07-23T07:42:10;3.50;;;1.63;;
23555;SDS011;11956;53.184;8.578;2022-07-23T07:45:11;5.03;;;1.85;;
23555;SDS011;11956;53.184;8.578;2022-07-23T07:48:12;4.82;;;1.60;;
23555;SDS011;11956;53.184;8.578;2022-07-23T07:51:13;3.75;;;1.73;;
23555;SDS011;11956;53.184;8.578;2022-07-23T07:54:14;3.80;;;2.00;;
23555;SDS011;11956;53.184;8.578;2022-07-23T07:57:14;5.95;;;2.13;;
23555;SDS011;11956;53.184;8.578;2022-07-23T08:00:15;4.40;;;1.95;;
23555;SDS011;11956;53.184;8.578;2022-07-23T08:03:17;2.35;;;1.52;;
23555;SDS011;11956;53.184;8.578;2022-07-23T08:06:18;3.47;;;1.10;;
23555;SDS011;11956;53.184;8.578;2022-07-23T08:09:19;3.00;;;1.20;;
23555;SDS011;11956;53.184;8.578;2022-07-23T08:12:19;5.82;;;1.30;;
23555;SDS011;11956;53.184;8.578;2022-07-23T08:15:21;2.38;;;0.80;;
23555;SDS011;11956;53.184;8.578;2022-07-23T08:18:22;1.88;;;0.80;;
23555;SDS011;11956;53.184;8.578;2022-07-23T08:21:23;4.30;;;0.90;;
23555;SDS011;11956;53.184;8.578;2022-07-23T08:24:24;4.05;;;0.70;;
23555;SDS011;11956;53.184;8.578;2022-07-23T08:27:25;2.75;;;0.50;;
23555;SDS011;11956;53.184;8.578;2022-07-23T08:30:26;3.03;;;0.70;;
23555;SDS011;11956;53.184;8.578;2022-07-23T08:33:28;2.20;;;0.57;;
23555;SDS011;11956;53.184;8.578;2022-07-23T08:36:29;1.70;;;0.52;;
23555;SDS011;11956;53.184;8.578;2022-07-23T08:39:32;1.92;;;0.65;;
23555;SDS011;11956;53.184;8.578;2022-07-23T08:42:33;1.67;;;0.40;;
23555;SDS011;11956;53.184;8.578;2022-07-23T08:45:42;1.67;;;0.43;;
23555;SDS011;11956;53.184;8.578;2022-07-23T08:48:44;1.40;;;0.50;;
23555;SDS011;11956;53.184;8.578;2022-07-23T08:51:49;1.90;;;0.50;;
23555;SDS011;11956;53.184;8.578;2022-07-23T08:54:50;1.95;;;0.50;;
23555;SDS011;11956;53.184;8.578;2022-07-23T08:57:53;3.88;;;0.60;;
23555;SDS011;11956;53.184;8.578;2022-07-23T09:00:54;1.40;;;0.47;;
23555;SDS011;11956;53.184;8.578;2022-07-23T09:03:56;0.70;;;0.28;;
23555;SDS011;11956;53.184;8.578;2022-07-23T09:06:57;2.72;;;0.60;;
23555;SDS011;11956;53.184;8.578;2022-07-23T09:10:04;0.73;;;0.30;;
23555;SDS011;11956;53.184;8.578;2022-07-23T09:16:49;1.10;;;0.40;;
23555;SDS011;11956;53.184;8.578;2022-07-23T09:19:51;1.48;;;0.40;;
23555;SDS011;11956;53.184;8.578;2022-07-23T09:23:08;0.98;;;0.50;;
23555;SDS011;11956;53.184;8.578;2022-07-23T09:26:16;1.92;;;0.40;;
23555;SDS011;11956;53.184;8.578;2022-07-23T09:29:24;2.13;;;0.40;;
23555;SDS011;11956;53.184;8.578;2022-07-23T09:32:26;2.30;;;0.43;;
23555;SDS011;11956;53.184;8.578;2022-07-23T09:35:43;1.70;;;0.40;;
23555;SDS011;11956;53.184;8.578;2022-07-23T09:38:49;1.45;;;0.38;;
23555;SDS011;11956;53.184;8.578;2022-07-23T09:41:50;0.95;;;0.30;;
23555;SDS011;11956;53.184;8.578;2022-07-23T09:44:52;2.80;;;0.68;;
23555;SDS011;11956;53.184;8.578;2022-07-23T09:48:14;1.92;;;0.30;;
23555;SDS011;11956;53.184;8.578;2022-07-23T09:51:17;1.35;;;0.40;;
23555;SDS011;11956;53.184;8.578;2022-07-23T09:54:30;0.70;;;0.30;;
23555;SDS011;11956;53.184;8.578;2022-07-23T09:57:36;2.13;;;0.40;;
23555;SDS011;11956;53.184;8.578;2022-07-23T10:00:40;0.85;;;0.43;;
23555;SDS011;11956;53.184;8.578;2022-07-23T10:03:42;0.93;;;0.40;;
23555;SDS011;11956;53.184;8.578;2022-07-23T10:07:18;2.67;;;0.60;;
23555;SDS011;11956;53.184;8.578;2022-07-23T10:10:27;1.85;;;0.40;;
23555;SDS011;11956;53.184;8.578;2022-07-23T10:13:48;2.42;;;0.57;;
23555;SDS011;11956;53.184;8.578;2022-07-23T10:16:49;3.90;;;0.70;;
23555;SDS011;11956;53.184;8.578;2022-07-23T10:19:50;1.85;;;0.80;;
23555;SDS011;11956;53.184;8.578;2022-07-23T10:29:57;1.30;;;0.40;;
23555;SDS011;11956;53.184;8.578;2022-07-23T10:36:24;0.90;;;0.40;;
23555;SDS011;11956;53.184;8.578;2022-07-23T10:43:19;1.58;;;0.30;;
23555;SDS011;11956;53.184;8.578;2022-07-23T10:46:21;1.15;;;0.35;;
23555;SDS011;11956;53.184;8.578;2022-07-23T10:49:35;1.98;;;0.50;;
23555;SDS011;11956;53.184;8.578;2022-07-23T10:52:36;0.85;;;0.47;;
23555;SDS011;11956;53.184;8.578;2022-07-23T10:58:54;2.35;;;0.70;;
23555;SDS011;11956;53.184;8.578;2022-07-23T11:02:20;1.83;;;0.60;;
23555;SDS011;11956;53.184;8.578;2022-07-23T11:05:24;1.88;;;0.70;;
23555;SDS011;11956;53.184;8.578;2022-07-23T11:08:48;1.15;;;0.50;;
23555;SDS011;11956;53.184;8.578;2022-07-23T11:12:32;2.88;;;0.73;;
23555;SDS011;11956;53.184;8.578;2022-07-23T11:16:03;1.38;;;0.90;;
23555;SDS011;11956;53.184;8.578;2022-07-23T11:19:04;3.40;;;0.60;;
23555;SDS011;11956;53.184;8.578;2022-07-23T11:22:06;1.50;;;0.50;;
23555;SDS011;11956;53.184;8.578;2022-07-23T11:25:07;1.52;;;0.50;;
23555;SDS011;11956;53.184;8.578;2022-07-23T11:31:17;1.00;;;0.43;;
23555;SDS011;11956;53.184;8.578;2022-07-23T11:34:24;1.75;;;0.50;;
23555;SDS011;11956;53.184;8.578;2022-07-23T11:37:38;3.60;;;0.63;;
23555;SDS011;11956;53.184;8.578;2022-07-23T11:40:40;1.58;;;0.85;;
23555;SDS011;11956;53.184;8.578;2022-07-23T11:43:44;0.93;;;0.40;;
23555;SDS011;11956;53.184;8.578;2022-07-23T11:46:58;3.05;;;0.75;;
23555;SDS011;11956;53.184;8.578;2022-07-23T11:50:05;1.25;;;0.50;;
23555;SDS011;11956;53.184;8.578;2022-07-23T11:53:07;1.17;;;0.47;;
23555;SDS011;11956;53.184;8.578;2022-07-23T11:56:10;1.42;;;0.38;;
23555;SDS011;11956;53.184;8.578;2022-07-23T11:59:11;1.25;;;0.55;;
23555;SDS011;11956;53.184;8.578;2022-07-23T12:02:13;1.25;;;0.50;;
23555;SDS011;11956;53.184;8.578;2022-07-23T12:05:15;1.65;;;0.43;;
23555;SDS011;11956;53.184;8.578;2022-07-23T12:08:21;1.63;;;0.50;;
23555;SDS011;11956;53.184;8.578;2022-07-23T12:11:23;1.15;;;0.40;;
23555;SDS011;11956;53.184;8.578;2022-07-23T12:14:24;1.02;;;0.50;;
23555;SDS011;11956;53.184;8.578;2022-07-23T12:17:28;1.90;;;0.73;;
23555;SDS011;11956;53.184;8.578;2022-07-23T12:20:32;1.75;;;0.28;;
23555;SDS011;11956;53.184;8.578;2022-07-23T12:23:46;0.95;;;0.40;;
23555;SDS011;11956;53.184;8.578;2022-07-23T12:27:08;0.85;;;0.30;;
23555;SDS011;11956;53.184;8.578;2022-07-23T12:30:14;1.50;;;0.30;;
23555;SDS011;11956;53.184;8.578;2022-07-23T12:33:21;1.50;;;0.47;;
23555;SDS011;11956;53.184;8.578;2022-07-23T12:36:36;2.58;;;0.40;;
23555;SDS011;11956;53.184;8.578;2022-07-23T12:39:41;2.45;;;0.50;;
23555;SDS011;11956;53.184;8.578;2022-07-23T12:42:42;1.60;;;0.50;;
23555;SDS011;11956;53.184;8.578;2022-07-23T12:45:44;1.42;;;0.30;;
23555;SDS011;11956;53.184;8.578;2022-07-23T12:49:12;0.85;;;0.40;;
23555;SDS011;11956;53.184;8.578;2022-07-23T12:52:28;2.10;;;0.52;;
23555;SDS011;11956;53.184;8.578;2022-07-23T12:55:29;1.73;;;0.50;;
23555;SDS011;11956;53.184;8.578;2022-07-23T13:01:55;0.77;;;0.45;;
23555;SDS011;11956;53.184;8.578;2022-07-23T13:05:01;1.38;;;0.30;;
23555;SDS011;11956;53.184;8.578;2022-07-23T13:08:01;1.25;;;0.30;;
23555;SDS011;11956;53.184;8.578;2022-07-23T13:11:03;0.82;;;0.40;;
23555;SDS011;11956;53.184;8.578;2022-07-23T13:14:05;2.63;;;0.90;;
23555;SDS011;11956;53.184;8.578;2022-07-23T13:17:06;3.53;;;0.40;;
23555;SDS011;11956;53.184;8.578;2022-07-23T13:20:07;0.35;;;0.30;;
23555;SDS011;11956;53.184;8.578;2022-07-23T13:23:08;2.05;;;0.30;;
23555;SDS011;11956;53.184;8.578;2022-07-23T13:26:09;1.73;;;0.40;;
23555;SDS011;11956;53.184;8.578;2022-07-23T13:29:10;1.80;;;0.60;;
23555;SDS011;11956;53.184;8.578;2022-07-23T13:32:12;1.63;;;0.50;;
23555;SDS011;11956;53.184;8.578;2022-07-23T13:35:14;1.40;;;0.40;;
23555;SDS011;11956;53.184;8.578;2022-07-23T13:38:16;1.95;;;0.60;;
23555;SDS011;11956;53.184;8.578;2022-07-23T13:41:17;2.40;;;0.63;;
23555;SDS011;11956;53.184;8.578;2022-07-23T13:44:18;1.92;;;0.50;;
23555;SDS011;11956;53.184;8.578;2022-07-23T13:47:19;1.38;;;0.50;;
23555;SDS011;11956;53.184;8.578;2022-07-23T13:50:20;2.28;;;0.40;;
23555;SDS011;11956;53.184;8.578;2022-07-23T13:53:22;2.53;;;0.80;;
23555;SDS011;11956;53.184;8.578;2022-07-23T13:56:24;1.50;;;0.40;;
23555;SDS011;11956;53.184;8.578;2022-07-23T13:59:25;1.77;;;0.52;;
23555;SDS011;11956;53.184;8.578;2022-07-23T14:02:26;1.38;;;0.50;;
23555;SDS011;11956;53.184;8.578;2022-07-23T14:05:27;1.73;;;0.60;;
23555;SDS011;11956;53.184;8.578;2022-07-23T14:08:28;2.30;;;0.65;;
23555;SDS011;11956;53.184;8.578;2022-07-23T14:11:29;1.65;;;0.75;;
23555;SDS011;11956;53.184;8.578;2022-07-23T14:14:31;2.22;;;0.90;;
23555;SDS011;11956;53.184;8.578;2022-07-23T14:17:32;3.50;;;0.70;;
23555;SDS011;11956;53.184;8.578;2022-07-23T14:20:33;2.58;;;0.60;;
23555;SDS011;11956;53.184;8.578;2022-07-23T14:23:34;8.02;;;0.88;;
23555;SDS011;11956;53.184;8.578;2022-07-23T14:26:35;2.20;;;0.63;;
23555;SDS011;11956;53.184;8.578;2022-07-23T14:29:36;4.53;;;0.90;;
23555;SDS011;11956;53.184;8.578;2022-07-23T14:32:37;2.38;;;0.50;;
23555;SDS011;11956;53.184;8.578;2022-07-23T14:35:38;0.98;;;0.30;;
23555;SDS011;11956;53.184;8.578;2022-07-23T14:38:39;2.25;;;0.45;;
23555;SDS011;11956;53.184;8.578;2022-07-23T14:41:40;1.30;;;0.60;;
23555;SDS011;11956;53.184;8.578;2022-07-23T14:44:41;1.48;;;0.60;;
23555;SDS011;11956;53.184;8.578;2022-07-23T14:47:42;2.60;;;1.10;;
23555;SDS011;11956;53.184;8.578;2022-07-23T14:50:43;2.10;;;0.60;;
23555;SDS011;11956;53.184;8.578;2022-07-23T14:53:44;3.50;;;1.17;;
23555;SDS011;11956;53.184;8.578;2022-07-23T14:56:45;2.50;;;1.00;;
23555;SDS011;11956;53.184;8.578;2022-07-23T14:59:46;2.05;;;0.80;;
23555;SDS011;11956;53.184;8.578;2022-07-23T15:02:47;1.23;;;0.40;;
23555;SDS011;11956;53.184;8.578;2022-07-23T15:05:48;0.75;;;0.50;;
23555;SDS011;11956;53.184;8.578;2022-07-23T15:08:49;2.70;;;0.70;;
23555;SDS011;11956;53.184;8.578;2022-07-23T15:11:51;1.08;;;0.50;;
23555;SDS011;11956;53.184;8.578;2022-07-23T15:14:51;3.40;;;0.80;;
23555;SDS011;11956;53.184;8.578;2022-07-23T15:17:52;1.40;;;0.73;;
23555;SDS011;11956;53.184;8.578;2022-07-23T15:20:53;3.55;;;0.73;;
23555;SDS011;11956;53.184;8.578;2022-07-23T15:23:54;2.15;;;0.60;;
23555;SDS011;11956;53.184;8.578;2022-07-23T15:26:58;1.52;;;0.55;;
23555;SDS011;11956;53.184;8.578;2022-07-23T15:29:59;0.95;;;0.57;;
23555;SDS011;11956;53.184;8.578;2022-07-23T15:33:00;1.30;;;0.70;;
23555;SDS011;11956;53.184;8.578;2022-07-23T15:36:02;4.50;;;0.93;;
23555;SDS011;11956;53.184;8.578;2022-07-23T15:39:03;1.20;;;0.68;;
23555;SDS011;11956;53.184;8.578;2022-07-23T15:42:04;2.90;;;0.70;;
23555;SDS011;11956;53.184;8.578;2022-07-23T15:45:05;1.08;;;0.50;;
23555;SDS011;11956;53.184;8.578;2022-07-23T15:48:07;3.42;;;0.80;;
23555;SDS011;11956;53.184;8.578;2022-07-23T15:51:07;0.60;;;0.50;;
23555;SDS011;11956;53.184;8.578;2022-07-23T15:54:08;2.83;;;0.80;;
23555;SDS011;11956;53.184;8.578;2022-07-23T15:57:09;0.80;;;0.50;;
23555;SDS011;11956;53.184;8.578;2022-07-23T16:00:18;1.13;;;0.40;;
23555;SDS011;11956;53.184;8.578;2022-07-23T16:03:28;1.20;;;0.50;;
23555;SDS011;11956;53.184;8.578;2022-07-23T16:06:31;1.50;;;0.60;;
23555;SDS011;11956;53.184;8.578;2022-07-23T16:09:33;1.35;;;0.50;;
23555;SDS011;11956;53.184;8.578;2022-07-23T16:12:34;1.02;;;0.60;;
23555;SDS011;11956;53.184;8.578;2022-07-23T16:15:35;0.75;;;0.50;;
23555;SDS011;11956;53.184;8.578;2022-07-23T16:18:36;1.13;;;0.50;;
23555;SDS011;11956;53.184;8.578;2022-07-23T16:21:38;3.53;;;0.70;;
23555;SDS011;11956;53.184;8.578;2022-07-23T16:24:39;1.85;;;0.75;;
23555;SDS011;11956;53.184;8.578;2022-07-23T16:27:40;1.08;;;0.47;;
23555;SDS011;11956;53.184;8.578;2022-07-23T16:30:41;2.30;;;0.70;;
23555;SDS011;11956;53.184;8.578;2022-07-23T16:33:42;0.85;;;0.50;;
23555;SDS011;11956;53.184;8.578;2022-07-23T16:36:43;2.83;;;0.60;;
23555;SDS011;11956;53.184;8.578;2022-07-23T16:39:44;2.95;;;0.50;;
23555;SDS011;11956;53.184;8.578;2022-07-23T16:42:45;1.85;;;0.60;;
23555;SDS011;11956;53.184;8.578;2022-07-23T16:45:46;1.45;;;0.50;;
23555;SDS011;11956;53.184;8.578;2022-07-23T16:48:47;1.65;;;1.10;;
23555;SDS011;11956;53.184;8.578;2022-07-23T16:51:48;1.83;;;0.47;;
23555;SDS011;11956;53.184;8.578;2022-07-23T16:54:49;2.10;;;0.60;;
23555;SDS011;11956;53.184;8.578;2022-07-23T16:57:50;2.05;;;0.60;;
23555;SDS011;11956;53.184;8.578;2022-07-23T17:00:51;0.88;;;0.47;;
23555;SDS011;11956;53.184;8.578;2022-07-23T17:03:52;2.53;;;0.60;;
23555;SDS011;11956;53.184;8.578;2022-07-23T17:06:53;3.38;;;0.73;;
23555;SDS011;11956;53.184;8.578;2022-07-23T17:09:54;1.05;;;0.68;;
23555;SDS011;11956;53.184;8.578;2022-07-23T17:12:55;1.83;;;0.75;;
23555;SDS011;11956;53.184;8.578;2022-07-23T17:15:57;1.48;;;0.82;;
23555;SDS011;11956;53.184;8.578;2022-07-23T17:18:58;2.30;;;0.60;;
23555;SDS011;11956;53.184;8.578;2022-07-23T17:21:59;3.13;;;0.80;;
23555;SDS011;11956;53.184;8.578;2022-07-23T17:25:00;1.65;;;0.60;;
23555;SDS011;11956;53.184;8.578;2022-07-23T17:28:09;1.40;;;0.68;;
23555;SDS011;11956;53.184;8.578;2022-07-23T17:31:10;1.77;;;0.80;;
23555;SDS011;11956;53.184;8.578;2022-07-23T17:34:11;0.95;;;0.60;;
23555;SDS011;11956;53.184;8.578;2022-07-23T17:37:12;2.30;;;0.60;;
23555;SDS011;11956;53.184;8.578;2022-07-23T17:40:13;5.68;;;0.55;;
23555;SDS011;11956;53.184;8.578;2022-07-23T17:43:14;1.55;;;0.80;;
23555;SDS011;11956;53.184;8.578;2022-07-23T17:46:16;2.25;;;1.10;;
23555;SDS011;11956;53.184;8.578;2022-07-23T17:49:17;1.67;;;0.70;;
23555;SDS011;11956;53.184;8.578;2022-07-23T17:52:18;2.38;;;0.60;;
23555;SDS011;11956;53.184;8.578;2022-07-23T17:55:20;1.88;;;0.50;;
23555;SDS011;11956;53.184;8.578;2022-07-23T17:58:22;1.15;;;0.70;;
23555;SDS011;11956;53.184;8.578;2022-07-23T18:01:23;3.22;;;0.80;;
23555;SDS011;11956;53.184;8.578;2022-07-23T18:04:24;0.63;;;0.60;;
23555;SDS011;11956;53.184;8.578;2022-07-23T18:07:25;2.67;;;1.10;;
23555;SDS011;11956;53.184;8.578;2022-07-23T18:10:26;4.18;;;1.00;;
23555;SDS011;11956;53.184;8.578;2022-07-23T18:13:27;2.30;;;0.55;;
23555;SDS011;11956;53.184;8.578;2022-07-23T18:16:28;5.07;;;0.90;;
23555;SDS011;11956;53.184;8.578;2022-07-23T18:19:29;1.80;;;0.70;;
23555;SDS011;11956;53.184;8.578;2022-07-23T18:22:30;1.27;;;0.60;;
23555;SDS011;11956;53.184;8.578;2022-07-23T18:25:31;1.58;;;0.68;;
23555;SDS011;11956;53.184;8.578;2022-07-23T18:28:33;2.80;;;0.93;;
23555;SDS011;11956;53.184;8.578;2022-07-23T18:31:34;2.97;;;0.90;;
23555;SDS011;11956;53.184;8.578;2022-07-23T18:34:34;3.97;;;0.80;;
23555;SDS011;11956;53.184;8.578;2022-07-23T18:37:35;2.53;;;0.70;;
23555;SDS011;11956;53.184;8.578;2022-07-23T18:40:36;2.70;;;0.80;;
23555;SDS011;11956;53.184;8.578;2022-07-23T18:43:39;1.40;;;0.87;;
23555;SDS011;11956;53.184;8.578;2022-07-23T18:46:41;4.85;;;0.95;;
23555;SDS011;11956;53.184;8.578;2022-07-23T18:49:42;1.98;;;0.70;;
23555;SDS011;11956;53.184;8.578;2022-07-23T18:52:43;2.25;;;0.80;;